createdAt,value
2019-01-04T00:01:32.277Z,1.35
2019-01-04T00:04:22.194Z,0.73
2019-01-04T00:06:51.516Z,1.27
2019-01-04T00:09:21.065Z,1.34
2019-01-04T00:11:50.376Z,1.31
2019-01-04T00:14:19.692Z,1.31
2019-01-04T00:16:49.090Z,1.30
2019-01-04T00:19:18.421Z,1.31
2019-01-04T00:21:47.874Z,1.33
2019-01-04T00:24:17.351Z,1.35
2019-01-04T00:26:46.657Z,1.36
2019-01-04T00:29:16.141Z,1.36
2019-01-04T00:32:04.539Z,1.35
2019-01-04T00:37:15.012Z,1.30
2019-01-04T00:39:44.314Z,1.26
2019-01-04T00:42:13.723Z,1.24
2019-01-04T00:44:43.118Z,1.21
2019-01-04T00:47:31.570Z,1.18
2019-01-04T00:50:00.863Z,1.18
2019-01-04T00:55:50.504Z,0.92
2019-01-04T00:58:41.256Z,1.09
2019-01-04T01:01:48.589Z,1.20
2019-01-04T01:08:13.546Z,1.18
2019-01-04T01:11:20.858Z,1.18
2019-01-04T01:14:28.175Z,1.19
2019-01-04T01:21:02.006Z,1.22
2019-01-04T01:24:09.384Z,1.28
2019-01-04T01:27:16.704Z,1.28
2019-01-04T01:30:11.295Z,1.30
2019-01-04T01:33:04.109Z,0.95
2019-01-04T01:39:25.710Z,1.30
2019-01-04T01:42:33.024Z,1.29
2019-01-04T01:45:40.338Z,1.30
2019-01-04T01:48:25.176Z,1.28
2019-01-04T01:51:32.568Z,0.96
2019-01-04T01:54:02.126Z,1.21
2019-01-04T01:56:31.472Z,1.08
2019-01-04T01:59:00.983Z,1.24
2019-01-04T02:01:30.278Z,1.24
2019-01-04T02:03:59.794Z,1.26
2019-01-04T02:06:29.100Z,1.29
2019-01-04T02:08:58.808Z,1.32
2019-01-04T02:11:28.173Z,1.35
2019-01-04T02:13:57.544Z,1.19
2019-01-04T02:16:26.836Z,1.37
2019-01-04T02:18:56.289Z,1.39
2019-01-04T02:21:25.587Z,0.95
2019-01-04T02:23:54.997Z,1.38
2019-01-04T02:26:24.314Z,0.97
2019-01-04T02:28:53.851Z,1.35
2019-01-04T02:31:23.144Z,1.33
2019-01-04T02:39:41.182Z,1.31
2019-01-04T02:42:10.556Z,1.31
2019-01-04T02:44:40.006Z,1.30
2019-01-04T02:47:09.300Z,1.30
2019-01-04T02:49:38.881Z,1.33
2019-01-04T02:52:27.249Z,1.32
2019-01-04T02:54:56.713Z,1.32
2019-01-04T02:57:26.086Z,1.32
2019-01-04T02:59:55.386Z,1.34
2019-01-04T03:02:24.889Z,1.34
2019-01-04T03:04:54.187Z,1.33
2019-01-04T03:07:23.569Z,1.31
2019-01-04T03:10:11.763Z,1.30
2019-01-04T03:12:41.085Z,1.28
2019-01-04T03:15:10.362Z,1.23
2019-01-04T03:17:39.628Z,1.23
2019-01-04T03:20:27.916Z,1.24
2019-01-04T03:22:57.200Z,1.26
2019-01-04T03:25:26.541Z,1.24
2019-01-04T03:27:55.837Z,1.24
2019-01-04T03:30:25.193Z,1.23
2019-01-04T03:32:54.483Z,1.22
2019-01-04T03:35:23.936Z,1.21
2019-01-04T03:37:53.228Z,1.21
2019-01-04T03:40:42.611Z,1.20
2019-01-04T03:43:12.082Z,0.91
2019-01-04T03:45:41.430Z,0.99
2019-01-04T03:48:10.928Z,1.23
2019-01-04T03:50:40.304Z,1.24
2019-01-04T03:53:28.654Z,1.26
2019-01-04T03:55:58.243Z,1.28
2019-01-04T03:58:27.586Z,0.89
2019-01-04T04:03:45.651Z,1.38
2019-01-04T04:06:14.953Z,1.39
2019-01-04T04:11:39.892Z,1.43
2019-01-04T04:14:09.382Z,1.44
2019-01-04T04:16:38.649Z,1.12
2019-01-04T04:19:08.175Z,1.50
2019-01-04T04:21:37.465Z,1.57
2019-01-04T04:24:07.035Z,1.68
2019-01-04T04:26:36.332Z,1.74
2019-01-04T04:29:05.976Z,1.85
2019-01-04T04:31:35.257Z,1.96
2019-01-04T04:34:04.755Z,2.02
2019-01-04T04:36:34.040Z,1.81
2019-01-04T04:41:53.920Z,2.13
2019-01-04T04:44:23.203Z,2.25
2019-01-04T04:46:52.728Z,2.27
2019-01-04T04:49:41.333Z,2.33
2019-01-04T04:52:29.766Z,2.38
2019-01-04T04:54:59.059Z,2.42
2019-01-04T04:57:28.735Z,2.44
2019-01-04T04:59:58.017Z,2.47
2019-01-04T05:02:27.501Z,2.49
2019-01-04T05:04:56.777Z,2.21
2019-01-04T05:07:26.326Z,2.52
2019-01-04T05:09:55.612Z,2.51
2019-01-04T05:12:25.284Z,2.55
2019-01-04T05:14:54.567Z,2.21
2019-01-04T05:17:24.153Z,2.57
2019-01-04T05:19:53.416Z,2.54
2019-01-04T05:22:23.053Z,2.51
2019-01-04T05:24:52.353Z,2.19
2019-01-04T05:27:22.272Z,2.43
2019-01-04T05:29:51.556Z,2.39
2019-01-04T05:32:21.220Z,2.37
2019-01-04T05:34:50.490Z,2.34
2019-01-04T05:37:20.184Z,2.30
2019-01-04T05:39:49.519Z,2.26
2019-01-04T05:42:19.112Z,2.22
2019-01-04T05:44:48.482Z,2.18
2019-01-04T05:47:18.127Z,2.18
2019-01-04T05:49:47.438Z,2.15
2019-01-04T05:52:17.095Z,2.11
2019-01-04T05:54:46.396Z,2.10
2019-01-04T06:00:04.325Z,2.11
2019-01-04T06:02:33.639Z,2.13
2019-01-04T06:05:03.171Z,2.13
2019-01-04T06:07:32.502Z,2.16
2019-01-04T06:10:01.792Z,2.16
2019-01-04T06:12:50.139Z,1.83
2019-01-04T06:15:19.503Z,2.12
2019-01-04T06:17:48.870Z,2.11
2019-01-04T06:20:18.168Z,2.08
2019-01-04T06:22:47.529Z,2.08
2019-01-04T06:25:16.863Z,2.07
2019-01-04T06:27:46.214Z,2.07
2019-01-04T06:30:15.583Z,2.02
2019-01-04T06:32:45.067Z,2.00
2019-01-04T06:35:14.358Z,1.99
2019-01-04T06:38:02.689Z,1.96
2019-01-04T06:40:32.031Z,1.97
2019-01-04T06:43:01.436Z,1.98
2019-01-04T06:45:30.768Z,2.07
2019-01-04T06:48:00.162Z,2.12
2019-01-04T06:50:29.495Z,2.11
2019-01-04T06:52:58.896Z,2.10
2019-01-04T06:55:55.490Z,2.10
2019-01-04T06:58:24.781Z,2.08
2019-01-04T07:00:54.149Z,2.04
2019-01-04T07:03:45.185Z,2.02
2019-01-04T07:06:14.538Z,2.02
2019-01-04T07:11:51.145Z,1.88
2019-01-04T07:14:20.471Z,1.80
2019-01-04T07:17:08.842Z,1.74
2019-01-04T07:19:38.261Z,1.68
2019-01-04T07:22:07.574Z,1.61
2019-01-04T07:24:36.911Z,1.55
2019-01-04T07:27:06.199Z,1.46
2019-01-04T07:29:35.514Z,1.41
2019-01-04T07:32:04.834Z,1.36
2019-01-04T07:34:34.271Z,1.28
2019-01-04T07:37:03.570Z,1.12
2019-01-04T07:42:07.836Z,1.16
2019-01-04T07:44:56.296Z,1.09
2019-01-04T07:47:25.584Z,1.09
2019-01-04T07:49:55.059Z,1.11
2019-01-04T07:52:24.351Z,1.10
2019-01-04T07:54:53.950Z,1.07
2019-01-04T07:57:42.139Z,1.04
2019-01-04T08:00:13.612Z,1.02
2019-01-04T08:02:53.636Z,0.98
2019-01-04T08:05:27.103Z,0.94
2019-01-04T08:07:56.455Z,0.96
2019-01-04T08:10:26.080Z,0.93
2019-01-04T08:13:14.325Z,0.93
2019-01-04T08:15:43.858Z,0.51
2019-01-04T08:18:13.193Z,0.91
2019-01-04T08:21:03.183Z,0.88
2019-01-04T08:23:32.553Z,0.84
2019-01-04T08:28:36.499Z,0.88
2019-01-04T08:31:06.106Z,0.94
2019-01-04T08:33:35.382Z,1.01
2019-01-04T08:36:04.853Z,1.11
2019-01-04T08:38:34.170Z,1.20
2019-01-04T08:41:03.560Z,1.30
2019-01-04T08:43:32.886Z,1.37
2019-01-04T08:46:02.772Z,1.46
2019-01-04T08:48:32.143Z,1.55
2019-01-04T08:51:01.480Z,1.63
2019-01-04T08:54:08.730Z,1.70
2019-01-04T08:56:39.222Z,1.76
2019-01-04T08:59:08.517Z,1.83
2019-01-04T09:01:38.036Z,1.87
2019-01-04T09:04:07.353Z,1.90
2019-01-04T09:06:36.884Z,1.95
2019-01-04T09:09:08.004Z,2.03
2019-01-04T09:11:37.386Z,1.82
2019-01-04T09:14:06.700Z,1.80
2019-01-04T09:16:36.162Z,2.21
2019-01-04T09:19:05.678Z,2.25
2019-01-04T09:21:35.162Z,2.25
2019-01-04T09:24:04.476Z,1.98
2019-01-04T09:26:34.519Z,2.41
2019-01-04T09:29:03.895Z,2.53
2019-01-04T09:31:33.330Z,2.54
2019-01-04T09:34:21.715Z,2.55
2019-01-04T09:36:51.082Z,2.56
2019-01-04T09:39:39.421Z,2.29
2019-01-04T09:42:14.084Z,2.53
2019-01-04T09:44:44.453Z,2.51
2019-01-04T09:47:13.760Z,2.48
2019-01-04T09:49:43.213Z,2.50
2019-01-04T09:52:31.572Z,2.61
2019-01-04T09:55:00.886Z,2.64
2019-01-04T09:57:30.638Z,2.64
2019-01-04T09:59:59.962Z,2.65
2019-01-04T10:02:29.385Z,2.67
2019-01-04T10:07:47.054Z,2.75
2019-01-04T10:10:16.579Z,2.77
2019-01-04T10:12:45.906Z,2.79
2019-01-04T10:15:17.055Z,2.85
2019-01-04T10:17:46.351Z,2.87
2019-01-04T10:20:15.970Z,2.90
2019-01-04T10:22:45.318Z,2.95
2019-01-04T10:25:14.847Z,3.02
2019-01-04T10:27:44.161Z,3.04
2019-01-04T10:30:32.524Z,3.06
2019-01-04T10:33:02.153Z,3.08
2019-01-04T10:35:31.448Z,2.82
2019-01-04T10:38:01.183Z,3.17
2019-01-04T10:40:30.466Z,3.22
2019-01-04T10:42:59.757Z,3.26
2019-01-04T10:45:29.141Z,3.29
2019-01-04T10:47:58.612Z,3.42
2019-01-04T10:50:27.967Z,3.57
2019-01-04T10:52:57.488Z,3.73
2019-01-04T10:55:46.055Z,3.96
2019-01-04T10:58:15.401Z,4.01
2019-01-04T11:00:44.974Z,4.01
2019-01-04T11:03:14.287Z,4.02
2019-01-04T11:05:43.895Z,4.04
2019-01-04T11:08:13.299Z,4.04
2019-01-04T11:10:42.845Z,4.06
2019-01-04T11:13:12.156Z,4.09
2019-01-04T11:16:00.549Z,4.16
2019-01-04T11:18:30.117Z,4.77
2019-01-04T11:21:01.863Z,5.50
2019-01-04T11:24:09.664Z,6.16
2019-01-04T11:30:13.097Z,5.80
2019-01-04T11:33:04.570Z,5.57
2019-01-04T11:36:11.905Z,5.50
2019-01-04T11:39:19.379Z,5.44
2019-01-04T11:42:26.670Z,5.42
2019-01-04T11:45:34.194Z,5.44
2019-01-04T11:52:12.143Z,5.50
2019-01-04T11:54:41.950Z,5.56
2019-01-04T11:57:11.248Z,6.11
2019-01-04T11:59:40.806Z,6.53
2019-01-04T12:02:10.143Z,6.74
2019-01-04T12:04:39.680Z,6.63
2019-01-04T12:07:09.097Z,6.39
2019-01-04T12:09:39.219Z,6.24
2019-01-04T12:12:08.534Z,6.17
2019-01-04T12:14:41.369Z,6.12
2019-01-04T12:19:57.533Z,5.98
2019-01-04T12:22:46.101Z,5.93
2019-01-04T12:27:56.569Z,5.89
2019-01-04T12:30:26.232Z,5.92
2019-01-04T12:33:14.869Z,5.93
2019-01-04T12:38:32.603Z,5.90
2019-01-04T12:41:02.214Z,5.90
2019-01-04T12:43:31.554Z,5.91
2019-01-04T12:46:01.210Z,5.94
2019-01-04T12:51:39.295Z,5.97
2019-01-04T12:54:08.589Z,5.98
2019-01-04T12:56:38.164Z,5.96
2019-01-04T12:59:07.497Z,5.96
2019-01-04T13:01:37.129Z,5.97
2019-01-04T13:04:06.422Z,5.97
2019-01-04T13:06:36.093Z,5.99
2019-01-04T13:09:26.497Z,5.96
2019-01-04T13:11:55.825Z,5.93
2019-01-04T13:14:25.322Z,5.98
2019-01-04T13:16:54.614Z,5.58
2019-01-04T13:19:25.820Z,6.00
2019-01-04T13:21:55.196Z,5.74
2019-01-04T13:24:24.603Z,6.00
2019-01-04T13:26:53.895Z,5.95
2019-01-04T13:29:23.257Z,5.96
2019-01-04T13:31:52.554Z,5.73
2019-01-04T13:34:22.185Z,5.98
2019-01-04T13:36:51.472Z,5.99
2019-01-04T13:39:20.775Z,6.00
2019-01-04T13:41:50.062Z,6.03
2019-01-04T13:44:19.551Z,6.04
2019-01-04T13:46:48.836Z,6.10
2019-01-04T13:49:18.325Z,6.13
2019-01-04T13:51:47.646Z,6.19
2019-01-04T13:54:17.027Z,6.25
2019-01-04T13:56:46.305Z,6.29
2019-01-04T13:59:16.018Z,6.33
2019-01-04T14:01:45.330Z,6.38
2019-01-04T14:04:14.924Z,6.44
2019-01-04T14:07:03.467Z,6.49
2019-01-04T14:09:32.759Z,6.46
2019-01-04T14:12:02.222Z,6.45
2019-01-04T14:14:31.564Z,6.41
2019-01-04T14:17:00.866Z,6.38
2019-01-04T14:19:30.187Z,6.33
2019-01-04T14:21:59.818Z,6.32
2019-01-04T14:27:36.539Z,6.29
2019-01-04T14:30:07.480Z,6.29
2019-01-04T14:32:37.062Z,6.26
2019-01-04T14:35:06.989Z,6.21
2019-01-04T14:37:36.400Z,6.22
2019-01-04T14:40:24.971Z,6.25
2019-01-04T14:42:54.253Z,6.30
2019-01-04T14:45:26.257Z,6.38
2019-01-04T14:47:55.566Z,6.40
2019-01-04T14:50:34.263Z,6.38
2019-01-04T14:53:03.590Z,6.39
2019-01-04T14:55:51.944Z,6.35
2019-01-04T14:58:40.194Z,6.36
2019-01-04T15:01:09.510Z,6.35
2019-01-04T15:03:57.984Z,6.33
2019-01-04T15:06:27.437Z,6.36
2019-01-04T15:08:56.723Z,6.11
2019-01-04T15:11:26.062Z,6.35
2019-01-04T15:13:55.354Z,6.35
2019-01-04T15:16:24.701Z,6.34
2019-01-04T15:18:54.000Z,6.31
2019-01-04T15:21:42.346Z,6.30
2019-01-04T15:24:11.965Z,6.01
2019-01-04T15:26:41.255Z,6.24
2019-01-04T15:29:10.878Z,6.19
2019-01-04T15:31:40.175Z,6.18
2019-01-04T15:34:09.570Z,6.15
2019-01-04T15:36:38.916Z,6.12
2019-01-04T15:39:27.249Z,6.07
2019-01-04T15:41:56.952Z,6.03
2019-01-04T15:44:45.379Z,6.01
2019-01-04T15:47:14.687Z,6.03
2019-01-04T15:49:44.061Z,6.03
2019-01-04T15:52:13.438Z,6.03
2019-01-04T15:54:42.926Z,6.04
2019-01-04T15:57:12.300Z,6.06
2019-01-04T15:59:41.745Z,6.11
2019-01-04T16:02:11.038Z,6.10
2019-01-04T16:04:59.436Z,6.08
2019-01-04T16:07:28.778Z,6.08
2019-01-04T16:09:58.118Z,6.04
2019-01-04T16:12:27.484Z,6.01
2019-01-04T16:14:56.848Z,5.99
2019-01-04T16:17:26.144Z,6.01
2019-01-04T16:22:23.031Z,6.05
2019-01-04T16:24:52.469Z,6.03
2019-01-04T16:27:21.761Z,6.03
2019-01-04T16:29:51.322Z,6.00
2019-01-04T16:32:20.614Z,5.69
2019-01-04T16:34:50.080Z,5.97
2019-01-04T16:37:19.391Z,5.95
2019-01-04T16:39:49.035Z,6.04
2019-01-04T16:42:18.596Z,6.04
2019-01-04T16:44:48.278Z,6.05
2019-01-04T16:47:17.562Z,5.75
2019-01-04T16:49:47.203Z,6.01
2019-01-04T16:52:16.520Z,6.05
2019-01-04T16:54:46.099Z,6.04
2019-01-04T17:00:11.343Z,6.03
2019-01-04T17:02:40.693Z,5.98
2019-01-04T17:05:10.124Z,5.96
2019-01-04T17:07:39.459Z,5.91
2019-01-04T17:10:08.987Z,5.92
2019-01-04T17:12:57.178Z,5.89
2019-01-04T17:15:26.565Z,5.93
2019-01-04T17:17:56.104Z,5.94
2019-01-04T17:20:25.400Z,5.94
2019-01-04T17:22:54.990Z,5.91
2019-01-04T17:25:24.286Z,5.30
2019-01-04T17:28:12.624Z,5.78
2019-01-04T17:30:42.342Z,5.68
2019-01-04T17:33:11.665Z,5.32
2019-01-04T17:35:41.158Z,5.47
2019-01-04T17:38:10.464Z,4.92
2019-01-04T17:40:40.443Z,5.40
2019-01-04T17:43:29.176Z,5.08
2019-01-04T17:45:58.489Z,5.35
2019-01-04T17:48:28.102Z,5.35
2019-01-04T17:50:57.471Z,5.37
2019-01-04T17:53:26.961Z,5.35
2019-01-04T17:55:56.265Z,5.31
2019-01-04T17:58:26.220Z,5.24
2019-01-04T18:00:55.639Z,5.16
2019-01-04T18:03:25.667Z,5.05
2019-01-04T18:05:55.207Z,4.94
2019-01-04T18:08:24.675Z,4.85
2019-01-04T18:10:53.997Z,4.54
2019-01-04T18:13:23.585Z,4.78
2019-01-04T18:15:52.884Z,4.18
2019-01-04T18:18:22.400Z,4.75
2019-01-04T18:20:51.800Z,4.77
2019-01-04T18:23:21.432Z,4.85
2019-01-04T18:25:50.722Z,4.62
2019-01-04T18:28:20.229Z,4.95
2019-01-04T18:30:49.518Z,4.84
2019-01-04T18:33:19.195Z,5.20
2019-01-04T18:35:48.526Z,5.26
2019-01-04T18:38:18.093Z,5.30
2019-01-04T18:40:47.444Z,5.28
2019-01-04T18:43:17.528Z,5.25
2019-01-04T18:45:46.853Z,5.26
2019-01-04T18:48:16.320Z,5.25
2019-01-04T18:50:45.618Z,5.25
2019-01-04T18:53:15.255Z,5.28
2019-01-04T18:55:44.546Z,5.29
2019-01-04T18:58:32.836Z,5.25
2019-01-04T19:01:02.193Z,4.75
2019-01-04T19:03:50.643Z,5.06
2019-01-04T19:06:19.972Z,5.03
2019-01-04T19:08:50.419Z,5.05
2019-01-04T19:11:20.462Z,5.13
2019-01-04T19:19:35.843Z,5.16
2019-01-04T19:22:05.346Z,5.16
2019-01-04T19:24:35.047Z,5.08
2019-01-04T19:27:44.295Z,4.97
2019-01-04T19:33:27.858Z,5.09
2019-01-04T19:35:57.355Z,5.10
2019-01-04T19:38:26.664Z,5.02
2019-01-04T19:40:56.223Z,4.98
2019-01-04T19:43:25.575Z,4.92
2019-01-04T19:46:14.063Z,4.84
2019-01-04T19:48:44.149Z,4.79
2019-01-04T19:51:13.504Z,4.70
2019-01-04T19:53:45.261Z,4.64
2019-01-04T19:56:14.575Z,4.51
2019-01-04T19:58:43.896Z,4.41
2019-01-04T20:01:13.217Z,4.31
2019-01-04T20:03:43.053Z,4.25
2019-01-04T20:07:09.302Z,4.14
2019-01-04T20:10:35.633Z,4.06
2019-01-04T20:14:01.840Z,3.93
2019-01-04T20:17:13.841Z,3.79
2019-01-04T20:20:06.505Z,3.70
2019-01-04T20:22:54.847Z,3.65
2019-01-04T20:25:43.831Z,3.60
2019-01-04T20:28:32.136Z,3.57
2019-01-04T20:31:20.400Z,3.53
2019-01-04T20:34:08.646Z,3.47
2019-01-04T20:36:56.857Z,3.39
2019-01-04T20:39:45.327Z,3.34
2019-01-04T20:42:33.701Z,3.29
2019-01-04T20:45:22.098Z,3.22
2019-01-04T20:48:10.492Z,2.86
2019-01-04T20:50:55.884Z,3.13
2019-01-04T20:53:44.066Z,3.09
2019-01-04T20:56:32.263Z,3.04
2019-01-04T20:59:20.507Z,2.98
2019-01-04T21:02:08.730Z,2.92
2019-01-04T21:04:57.139Z,2.92
2019-01-04T21:07:45.562Z,2.89
2019-01-04T21:13:33.868Z,2.80
2019-01-04T21:16:21.076Z,2.76
2019-01-04T21:19:22.587Z,2.19
2019-01-04T21:22:10.981Z,2.68
2019-01-04T21:24:59.239Z,2.65
2019-01-04T21:27:59.058Z,2.65
2019-01-04T21:30:47.271Z,2.65
2019-01-04T21:33:44.462Z,2.62
2019-01-04T21:36:32.913Z,2.71
2019-01-04T21:39:21.402Z,2.77
2019-01-04T21:42:09.661Z,2.81
2019-01-04T21:44:58.939Z,2.85
2019-01-04T21:47:47.220Z,2.92
2019-01-04T21:50:35.493Z,2.88
2019-01-04T21:53:24.082Z,3.00
2019-01-04T21:56:24.173Z,3.04
2019-01-04T21:59:15.089Z,3.08
2019-01-04T22:02:06.240Z,3.13
2019-01-04T22:04:54.431Z,3.17
2019-01-04T22:07:42.808Z,3.20
2019-01-04T22:10:31.258Z,3.22
2019-01-04T22:13:19.031Z,2.93
2019-01-04T22:16:07.222Z,3.32
2019-01-04T22:18:55.451Z,3.37
2019-01-04T22:22:02.827Z,3.46
2019-01-04T22:24:51.019Z,3.53
2019-01-04T22:27:39.269Z,3.61
2019-01-04T22:30:27.935Z,3.36
2019-01-04T22:33:16.389Z,3.70
2019-01-04T22:36:04.732Z,3.44
2019-01-04T22:38:56.124Z,3.20
2019-01-04T22:41:42.159Z,3.87
2019-01-04T22:44:30.458Z,3.97
2019-01-04T22:47:18.770Z,4.07
2019-01-04T22:50:06.971Z,4.08
2019-01-04T22:52:55.194Z,4.08
2019-01-04T22:55:43.387Z,4.01
2019-01-04T22:58:31.584Z,3.96
2019-01-04T23:01:19.806Z,3.92
2019-01-04T23:04:08.023Z,3.86
2019-01-04T23:07:05.006Z,3.79
2019-01-04T23:09:53.403Z,3.77
2019-01-04T23:12:41.724Z,3.73
2019-01-04T23:15:30.060Z,3.71
2019-01-04T23:18:18.301Z,3.69
2019-01-04T23:21:06.753Z,3.66
2019-01-04T23:23:55.031Z,3.64
2019-01-04T23:26:43.325Z,3.62
2019-01-04T23:29:31.505Z,3.62
2019-01-04T23:32:19.712Z,3.62
2019-01-04T23:35:07.889Z,3.60
2019-01-04T23:37:56.158Z,3.59
2019-01-04T23:40:44.343Z,3.56
2019-01-04T23:43:32.542Z,3.54
2019-01-04T23:46:20.994Z,3.53
2019-01-04T23:49:09.354Z,3.53
2019-01-04T23:52:16.571Z,3.54
2019-01-04T23:55:04.838Z,3.56
2019-01-04T23:57:53.014Z,3.52
